All tips

Date Tipster Match starts Home/away Selection Odds Review Result Status Tips Share
27.12.2018 20:02 Bogdan Anev 29.12.2018 15:00 Accrington Stanley vs. Peterborough United Accrington Stanley 1.97 0:4 Lose Tips Share
27.12.2018 20:02 Bogdan Anev 29.12.2018 13:00 Oxford United vs. Bristol Rovers Oxford United 2.04 0:2 Lose Tips Share
27.12.2018 19:54 Bogdan Anev 28.12.2018 14:30 United Arab Emirates vs. Kuwait United Arab Emirates 1.769 0:2 Lose Tips Share
27.12.2018 19:54 Bogdan Anev 29.12.2018 15:00 Crewe vs. Stevenage Crewe 2.2 1:0 Win Tips Share
27.12.2018 19:53 Bogdan Anev 29.12.2018 15:00 Cheltenham Town vs. Forest Green Rovers Forest Green Rovers 2.35 2:2 Lose Tips Share
27.12.2018 19:53 Bogdan Anev 29.12.2018 15:00 Cambridge United vs. Lincoln City Lincoln City 2.05 1:2 Win Tips Share
27.12.2018 19:53 Bogdan Anev 29.12.2018 15:00 Port Vale vs. Oldham Athletic Oldham Athletic 2.4 1:4 Win Tips Share
27.12.2018 19:53 Bogdan Anev 29.12.2018 15:00 Notts County vs. Bury Bury 1.689 0:0 Lose Tips Share
27.12.2018 19:53 Bogdan Anev 29.12.2018 15:00 Colchester United vs. Morecambe Colchester United 1.636 0:0 Lose Tips Share
27.12.2018 19:53 Bogdan Anev 29.12.2018 15:00 Mansfield vs. Swindon Town Mansfield 1.609 0:0 Lose Tips Share
27.12.2018 19:53 Bogdan Anev 29.12.2018 15:00 Northampton Town vs. MK Dons MK Dons 2.38 2:2 Lose Tips Share
27.12.2018 19:53 Bogdan Anev 29.12.2018 15:00 Carlisle vs. Macclesfield Town Carlisle 1.694 2:1 Win Tips Share
27.12.2018 19:53 Bogdan Anev 29.12.2018 15:00 Exeter City vs. Grimsby Town Exeter City 1.869 1:2 Lose Tips Share
27.12.2018 19:53 Bogdan Anev 29.12.2018 15:00 Tranmere vs. Yeovil Town Tranmere 1.934 0:0 Lose Tips Share
27.12.2018 19:52 Bogdan Anev 29.12.2018 15:00 Newport County vs. Crawley Town Newport County 1.724 0:0 Lose Tips Share
27.12.2018 17:18 Roykay 27.12.2018 20:00 Palermo vs. Ascoli Ascoli +1.5 1.574 3:0 Lose Tips Share
27.12.2018 17:13 Roykay 27.12.2018 19:30 Anderlecht vs. Waasland-Beveren Under 3.5 1.595 3:0 Win Tips Share
26.12.2018 21:04 Domybestemployee 30.12.2018 01:12 Alabama vs. Oklahoma Over 77 1.925 45:34 Win Tips Share
26.12.2018 21:04 Domybestemployee 29.12.2018 21:11 Clemson vs. Notre Dame Over 55 1.813 30:3 Lose Tips Share
26.12.2018 21:04 Domybestemployee 29.12.2018 18:15 Nevada vs. Arkansas State Over 56 1.99 16:13 Lose Tips Share
26.12.2018 21:04 Domybestemployee 29.12.2018 17:00 Virginia vs. South Carolina Over 53.5 1.925 28:0 Lose Tips Share
26.12.2018 21:04 Domybestemployee 29.12.2018 17:00 Michigan vs. Florida Over 51 1.943 15:41 Win Tips Share
26.12.2018 21:04 Domybestemployee 29.12.2018 02:06 Washington State vs. Iowa State Over 56 1.925 28:26 Lose Tips Share
26.12.2018 21:03 Domybestemployee 28.12.2018 22:21 West Virginia vs. Syracuse Over 67.5 2.06 18:34 Lose Tips Share
BET £20 ON THE EXCHANGE & GET £5 TO START A FREE BET STREAK To qualify you must first opt-in to the promotion. After your qualifying bet(s) has settled you’ll get a £5 Exchange Free Bet. If you win with your free bet, you’ll receive another free bet the following day. You have 72 hours to use your free bet.To learn more about ‘Free Bet Streak’, press the More Info tab and watch the video. T&Cs apply.
26.12.2018 21:03 Domybestemployee 28.12.2018 18:30 Purdue vs. Auburn Over 55.5 1.925 14:63 Win Tips Share
26.12.2018 21:03 Domybestemployee 28.12.2018 02:05 Baylor vs. Vanderbilt Over 55.5 1.925 45:38 Win Tips Share
26.12.2018 21:03 Domybestemployee 27.12.2018 22:20 Wisconsin vs. Miami Florida Over 47 1.925 35:3 Lose Tips Share
26.12.2018 21:03 Domybestemployee 27.12.2018 18:30 Temple vs. Duke Over 54.5 1.98 27:56 Win Tips Share
26.12.2018 21:03 Domybestemployee 27.12.2018 02:06 California vs. TCU Over 38 1.833 7:10 Lose Tips Share
26.12.2018 21:03 Domybestemployee 26.12.2018 22:20 Georgia Tech vs. Minnesota U Over 57 1.98 10:34 Lose Tips Share
26.12.2018 21:02 Domybestemployee 27.12.2018 20:00 FC Barcelona Regal vs. Anadolu Efes Over 163 1.952 80:65 Lose Tips Share
26.12.2018 21:02 Domybestemployee 27.12.2018 19:05 Maccabi Tel Aviv vs. Emporio Armani Milano Over 164 1.9 94:92 Win Tips Share
26.12.2018 21:02 Domybestemployee 27.12.2018 17:15 Darussafaka vs. Olympiakos BC Over 154.5 1.909 79:75 Lose Tips Share
26.12.2018 21:02 Domybestemployee 27.12.2018 17:00 BC Khimki Moscow vs. Kirolbet Baskonia Over 159.5 1.934 77:85 Win Tips Share
26.12.2018 17:01 Urfin J 27.12.2018 02:30 Caneros De Los Mochis vs. Naranjeros De Hermosillo Caneros De Los Mochis 1.564 5:4 Win Tips Share
26.12.2018 17:01 Urfin J 27.12.2018 02:30 Mayos De Navojoa vs. Charros de Jalisco Mayos De Navojoa 1.546 2:12 Lose Tips Share
26.12.2018 17:01 Urfin J 27.12.2018 02:10 Yaquis de Cd Obregon vs. Aguilas de Mexicali Yaquis de Cd Obregon 1.653 9:3 Win Tips Share
26.12.2018 17:00 Urfin J 26.12.2018 18:30 Kassel Huskies vs. Lausitzer Fuchse Kassel Huskies 2.23 5:2 Win Tips Share
26.12.2018 17:00 Urfin J 26.12.2018 17:30 EHC Bayreuth vs. EC Bad Nauheim EC Bad Nauheim 1.833 2:3 Win Tips Share
26.12.2018 17:00 Urfin J 27.12.2018 09:30 Admiral Vladivostok vs. HC Vityaz HC Vityaz 2.01 4:2 Lose Tips Share
26.12.2018 16:59 Urfin J 27.12.2018 19:45 Pau Lacq Orthez vs. Nanterre Pau Lacq Orthez 1.546 84:75 Win Tips Share
26.12.2018 16:59 Urfin J 27.12.2018 19:30 Antibes vs. Gravelines-Dunkerque Gravelines-Dunkerque 1.826 68:78 Win Tips Share
26.12.2018 16:59 Urfin J 27.12.2018 19:00 ESSM Le Portel vs. Dijon Dijon 1.854 90:69 Lose Tips Share
26.12.2018 16:58 Urfin J 27.12.2018 19:00 Cholet Basket vs. Chalon Saone Chalon Saone 1.657 98:94 Lose Tips Share
26.12.2018 16:58 Urfin J 27.12.2018 19:00 Bourg-en-Bresse vs. Monaco Monaco 1.813 100:90 Lose Tips Share
26.12.2018 16:58 Urfin J 26.12.2018 19:45 Paris Levallois vs. Lyon Villeurbanne Lyon Villeurbanne 1.729 79:88 Win Tips Share
26.12.2018 16:58 Urfin J 27.12.2018 20:00 FC Barcelona Regal vs. Anadolu Efes FC Barcelona Regal 1.515 80:65 Win Tips Share
26.12.2018 16:57 Urfin J 27.12.2018 19:05 Maccabi Tel Aviv vs. Emporio Armani Milano Maccabi Tel Aviv 1.552 94:92 Win Tips Share
26.12.2018 16:57 Urfin J 27.12.2018 17:00 BC Khimki Moscow vs. Kirolbet Baskonia Kirolbet Baskonia 1.757 77:85 Win Tips Share
26.12.2018 16:57 Urfin J 30.12.2018 02:00 Angelique Kerber vs. Garbine Muguruza Angelique Kerber 1.74 2:1 Win Tips Share
Experience more with...